Time;durP1;ratioP1;P1;durP2;ratioP2;P2;SDS_P1;SDS_P2;PMS_P1;PMS_P2;Temp;Humidity;BMP_temperature;BMP_pressure;BME280_temperature;BME280_humidity;BME280_pressure;Samples;Min_cycle;Max_cycle;Signal;HPM_P1;HPM_P2
2021/10/13 00:01:07;;;;;;;0.10;0.10;;;;;;;;;;5062533;28;20249;-69
2021/10/13 00:03:35;;;;;;;0.10;0.10;;;;;;;;;;5062529;28;20239;-69
2021/10/13 00:06:01;;;;;;;0.27;0.27;;;;;;;;;;5062405;28;20257;-70
2021/10/13 00:08:27;;;;;;;0.20;0.20;;;;;;;;;;5063062;28;20509;-69
2021/10/13 00:10:53;;;;;;;0.20;0.20;;;;;;;;;;5065504;28;20207;-68
2021/10/13 00:13:20;;;;;;;0.20;0.20;;;;;;;;;;5066070;28;20204;-68
2021/10/13 00:15:46;;;;;;;0.10;0.10;;;;;;;;;;5066243;28;20203;-68
2021/10/13 00:18:12;;;;;;;0.20;0.20;;;;;;;;;;5066248;28;20207;-68
2021/10/13 00:20:40;;;;;;;0.10;0.10;;;;;;;;;;5065940;28;20249;-68
2021/10/13 00:23:06;;;;;;;0.20;0.20;;;;;;;;;;5066144;28;20222;-68
2021/10/13 00:25:32;;;;;;;0.20;0.20;;;;;;;;;;5066299;28;20204;-69
2021/10/13 00:27:58;;;;;;;0.20;0.20;;;;;;;;;;5066037;28;20204;-69
2021/10/13 00:30:25;;;;;;;0.20;0.20;;;;;;;;;;5066032;28;20348;-69
2021/10/13 00:32:51;;;;;;;0.20;0.20;;;;;;;;;;5066207;28;20487;-69
2021/10/13 00:35:17;;;;;;;0.20;0.20;;;;;;;;;;5066155;28;20276;-67
2021/10/13 00:37:45;;;;;;;0.20;0.20;;;;;;;;;;5066176;28;20211;-66
2021/10/13 00:40:11;;;;;;;0.20;0.20;;;;;;;;;;5066074;28;20400;-68
2021/10/13 00:42:38;;;;;;;0.20;0.20;;;;;;;;;;5066071;28;20223;-67
2021/10/13 00:45:06;;;;;;;0.20;0.20;;;;;;;;;;5063344;28;20253;-67
2021/10/13 00:47:32;;;;;;;0.20;0.20;;;;;;;;;;5054282;28;20237;-67
2021/10/13 00:49:58;;;;;;;0.20;0.20;;;;;;;;;;5065895;28;20261;-67
2021/10/13 00:52:25;;;;;;;0.20;0.20;;;;;;;;;;5065996;28;20490;-67
2021/10/13 00:54:52;;;;;;;0.13;0.13;;;;;;;;;;5065937;28;20386;-66
2021/10/13 00:57:19;;;;;;;0.20;0.20;;;;;;;;;;5065435;28;20326;-67
2021/10/13 00:59:45;;;;;;;0.20;0.20;;;;;;;;;;5065831;28;20206;-67
2021/10/13 01:02:13;;;;;;;0.20;0.20;;;;;;;;;;5065331;28;20222;-67
2021/10/13 01:04:54;;;;;;;0.20;0.20;;;;;;;;;;5065210;28;20299;-67
2021/10/13 01:07:24;;;;;;;0.20;0.20;;;;;;;;;;5065438;28;20208;-68
2021/10/13 01:09:54;;;;;;;0.10;0.10;;;;;;;;;;5065110;28;20242;-67
2021/10/13 01:12:26;;;;;;;0.10;0.10;;;;;;;;;;5064932;28;20569;-67
2021/10/13 01:14:56;;;;;;;0.20;0.20;;;;;;;;;;5065513;28;20254;-67
2021/10/13 01:17:25;;;;;;;0.20;0.20;;;;;;;;;;5065269;28;20269;-67
2021/10/13 01:19:57;;;;;;;0.20;0.20;;;;;;;;;;5064666;28;20203;-68
2021/10/13 01:22:29;;;;;;;0.20;0.20;;;;;;;;;;5065018;28;20214;-68
2021/10/13 01:25:02;;;;;;;0.20;0.20;;;;;;;;;;5064800;28;20222;-67
2021/10/13 01:27:38;;;;;;;0.20;0.20;;;;;;;;;;5064797;28;20230;-67
2021/10/13 01:30:05;;;;;;;0.20;0.20;;;;;;;;;;5065227;28;20200;-68
2021/10/13 01:32:34;;;;;;;0.20;0.20;;;;;;;;;;5064897;28;20202;-67
2021/10/13 01:35:01;;;;;;;0.20;0.20;;;;;;;;;;5064912;28;20199;-66
2021/10/13 01:37:29;;;;;;;0.10;0.10;;;;;;;;;;5064974;28;20207;-67
2021/10/13 01:39:56;;;;;;;0.20;0.20;;;;;;;;;;5064755;28;20202;-67
2021/10/13 01:42:23;;;;;;;0.20;0.20;;;;;;;;;;5064932;28;20366;-68
2021/10/13 01:44:55;;;;;;;0.20;0.20;;;;;;;;;;5064700;28;20204;-67
2021/10/13 01:47:23;;;;;;;0.20;0.20;;;;;;;;;;5064788;28;20207;-66
2021/10/13 01:49:50;;;;;;;0.20;0.20;;;;;;;;;;5064649;28;20206;-67
2021/10/13 01:52:18;;;;;;;0.20;0.20;;;;;;;;;;5064633;28;20203;-67
2021/10/13 01:54:44;;;;;;;0.20;0.20;;;;;;;;;;5064565;28;20247;-67
2021/10/13 01:57:11;;;;;;;0.20;0.20;;;;;;;;;;5064358;28;20204;-67
2021/10/13 01:59:39;;;;;;;0.20;0.20;;;;;;;;;;5064180;28;20204;-67
2021/10/13 02:02:07;;;;;;;0.20;0.20;;;;;;;;;;5061109;28;20203;-66
2021/10/13 02:04:37;;;;;;;0.20;0.20;;;;;;;;;;5052803;28;20236;-67
2021/10/13 02:07:04;;;;;;;0.20;0.20;;;;;;;;;;5058772;28;20199;-66
2021/10/13 02:09:30;;;;;;;0.20;0.20;;;;;;;;;;5057826;28;20207;-66
2021/10/13 02:11:58;;;;;;;0.20;0.20;;;;;;;;;;5060168;28;20241;-66
2021/10/13 02:14:26;;;;;;;0.20;0.20;;;;;;;;;;5062011;28;20211;-66
2021/10/13 02:16:54;;;;;;;0.20;0.20;;;;;;;;;;5055568;28;20253;-67
2021/10/13 02:19:22;;;;;;;0.20;0.20;;;;;;;;;;5055250;28;20203;-67
2021/10/13 02:21:50;;;;;;;0.20;0.20;;;;;;;;;;5063972;28;20564;-68
2021/10/13 02:24:21;;;;;;;0.20;0.20;;;;;;;;;;5063768;28;20227;-67
2021/10/13 02:26:47;;;;;;;0.20;0.20;;;;;;;;;;5063603;28;20206;-67
2021/10/13 02:29:15;;;;;;;0.20;0.20;;;;;;;;;;5063677;28;20248;-66
2021/10/13 02:31:41;;;;;;;0.20;0.20;;;;;;;;;;5063682;28;20265;-66
2021/10/13 02:34:08;;;;;;;0.20;0.20;;;;;;;;;;5064031;28;20253;-67
2021/10/13 02:36:35;;;;;;;0.20;0.20;;;;;;;;;;5063874;28;20203;-67
2021/10/13 02:39:01;;;;;;;0.20;0.20;;;;;;;;;;5063721;28;20402;-67
2021/10/13 02:41:28;;;;;;;0.10;0.10;;;;;;;;;;5063403;28;20222;-67
2021/10/13 02:43:54;;;;;;;0.20;0.20;;;;;;;;;;5063659;28;20424;-67
2021/10/13 02:46:23;;;;;;;0.20;0.20;;;;;;;;;;5063331;28;20290;-67
2021/10/13 02:48:54;;;;;;;0.20;0.20;;;;;;;;;;5063606;28;20501;-67
2021/10/13 02:51:22;;;;;;;0.20;0.20;;;;;;;;;;5063257;28;20203;-66
2021/10/13 02:53:52;;;;;;;0.20;0.20;;;;;;;;;;5063331;28;20453;-67
2021/10/13 02:56:21;;;;;;;0.20;0.20;;;;;;;;;;5063315;28;20202;-67
2021/10/13 02:58:53;;;;;;;0.20;0.20;;;;;;;;;;5049217;28;20207;-68
2021/10/13 03:01:19;;;;;;;0.20;0.20;;;;;;;;;;5063301;28;20253;-68
2021/10/13 03:03:47;;;;;;;0.20;0.20;;;;;;;;;;5062688;28;20591;-67
2021/10/13 03:06:13;;;;;;;0.20;0.20;;;;;;;;;;5063339;28;20505;-68
2021/10/13 03:08:42;;;;;;;0.20;0.20;;;;;;;;;;5063141;28;20201;-68
2021/10/13 03:11:10;;;;;;;0.20;0.20;;;;;;;;;;5063275;28;20249;-66
2021/10/13 03:13:38;;;;;;;0.20;0.20;;;;;;;;;;5063134;28;20388;-67
2021/10/13 03:16:05;;;;;;;0.20;0.20;;;;;;;;;;5063498;28;20206;-67
2021/10/13 03:18:31;;;;;;;0.20;0.20;;;;;;;;;;5062983;28;20544;-68
2021/10/13 03:20:58;;;;;;;0.20;0.20;;;;;;;;;;5062866;28;20327;-68
2021/10/13 03:23:25;;;;;;;0.20;0.20;;;;;;;;;;5063105;28;20393;-67
2021/10/13 03:25:51;;;;;;;0.20;0.20;;;;;;;;;;5063078;28;20447;-67
2021/10/13 03:28:19;;;;;;;0.20;0.20;;;;;;;;;;5063186;28;20516;-69
2021/10/13 03:30:45;;;;;;;0.20;0.20;;;;;;;;;;5062744;28;20543;-68
2021/10/13 03:33:11;;;;;;;0.20;0.20;;;;;;;;;;5062630;28;20199;-68
2021/10/13 03:35:38;;;;;;;0.20;0.20;;;;;;;;;;5062938;28;20227;-68
2021/10/13 03:38:05;;;;;;;0.20;0.20;;;;;;;;;;5062714;28;20203;-67
2021/10/13 03:40:32;;;;;;;0.20;0.20;;;;;;;;;;5063113;28;20210;-66
2021/10/13 03:42:59;;;;;;;0.20;0.20;;;;;;;;;;5064072;28;20276;-67
2021/10/13 03:45:26;;;;;;;0.20;0.20;;;;;;;;;;5069720;28;20205;-67
2021/10/13 03:47:53;;;;;;;0.20;0.20;;;;;;;;;;5069229;28;20214;-68
2021/10/13 03:50:21;;;;;;;0.20;0.20;;;;;;;;;;5069411;28;20432;-67
2021/10/13 03:52:47;;;;;;;0.20;0.20;;;;;;;;;;5069004;28;20218;-67
2021/10/13 03:55:14;;;;;;;0.20;0.20;;;;;;;;;;5069024;28;20548;-67
2021/10/13 03:57:41;;;;;;;0.20;0.20;;;;;;;;;;5069166;28;20377;-67
2021/10/13 04:00:09;;;;;;;0.13;0.13;;;;;;;;;;5069009;28;20210;-68
2021/10/13 04:02:36;;;;;;;0.20;0.20;;;;;;;;;;5068537;28;20209;-67
2021/10/13 04:05:03;;;;;;;0.20;0.20;;;;;;;;;;5068634;28;20238;-66
2021/10/13 04:07:29;;;;;;;0.20;0.20;;;;;;;;;;5068833;28;20511;-66
2021/10/13 04:09:55;;;;;;;0.10;0.10;;;;;;;;;;5068943;28;20206;-67
2021/10/13 04:12:22;;;;;;;0.20;0.20;;;;;;;;;;5069085;28;20272;-68
2021/10/13 04:14:49;;;;;;;0.17;0.17;;;;;;;;;;5068944;28;20224;-68
2021/10/13 04:17:16;;;;;;;0.20;0.20;;;;;;;;;;5068702;28;20207;-67
2021/10/13 04:19:46;;;;;;;0.20;0.20;;;;;;;;;;5069234;28;20202;-66
2021/10/13 04:22:12;;;;;;;0.20;0.20;;;;;;;;;;5069264;28;20212;-67
2021/10/13 04:24:38;;;;;;;0.20;0.20;;;;;;;;;;5068974;28;20537;-67
2021/10/13 04:27:04;;;;;;;0.20;0.20;;;;;;;;;;5068874;28;20271;-68
2021/10/13 04:29:32;;;;;;;0.20;0.20;;;;;;;;;;5069077;28;20210;-68
2021/10/13 04:31:58;;;;;;;0.20;0.20;;;;;;;;;;5069374;28;20206;-69
2021/10/13 04:34:24;;;;;;;0.20;0.20;;;;;;;;;;5069027;28;20483;-68
2021/10/13 04:36:51;;;;;;;0.20;0.20;;;;;;;;;;5068832;28;20320;-68
2021/10/13 04:39:18;;;;;;;0.20;0.20;;;;;;;;;;5068689;28;20237;-67
2021/10/13 04:41:44;;;;;;;0.20;0.20;;;;;;;;;;5068880;28;20229;-68
2021/10/13 04:44:10;;;;;;;0.20;0.20;;;;;;;;;;5068624;28;20284;-68
2021/10/13 04:46:36;;;;;;;0.20;0.20;;;;;;;;;;5066737;28;20203;-68
2021/10/13 04:49:03;;;;;;;0.20;0.20;;;;;;;;;;5058510;28;20234;-67
2021/10/13 04:51:29;;;;;;;0.20;0.20;;;;;;;;;;5067986;28;20551;-68
2021/10/13 04:53:57;;;;;;;0.13;0.13;;;;;;;;;;5068147;28;20199;-67
2021/10/13 04:56:23;;;;;;;0.20;0.20;;;;;;;;;;5063278;28;20261;-67
2021/10/13 04:58:49;;;;;;;0.20;0.20;;;;;;;;;;5059189;28;20499;-67
2021/10/13 05:01:15;;;;;;;0.20;0.20;;;;;;;;;;5057763;28;20243;-68
2021/10/13 05:03:41;;;;;;;0.20;0.20;;;;;;;;;;5064194;28;20536;-67
2021/10/13 05:06:07;;;;;;;0.20;0.20;;;;;;;;;;5065016;28;20248;-67
2021/10/13 05:08:34;;;;;;;0.20;0.20;;;;;;;;;;5065064;28;20609;-68
2021/10/13 05:11:01;;;;;;;0.20;0.20;;;;;;;;;;5064698;28;20241;-68
2021/10/13 05:13:27;;;;;;;0.20;0.20;;;;;;;;;;5063484;28;20212;-67
2021/10/13 05:15:54;;;;;;;0.20;0.20;;;;;;;;;;5052169;28;20283;-67
2021/10/13 05:18:20;;;;;;;0.20;0.20;;;;;;;;;;5064880;28;20214;-68
2021/10/13 05:20:47;;;;;;;0.20;0.20;;;;;;;;;;5064955;28;20375;-68
2021/10/13 05:23:13;;;;;;;0.20;0.20;;;;;;;;;;5059685;28;20203;-67
2021/10/13 05:25:39;;;;;;;0.20;0.20;;;;;;;;;;5050027;28;20206;-67
2021/10/13 05:28:07;;;;;;;0.20;0.20;;;;;;;;;;5049599;28;20247;-66
2021/10/13 05:30:33;;;;;;;0.20;0.20;;;;;;;;;;5055939;28;20237;-67
2021/10/13 05:32:59;;;;;;;0.20;0.20;;;;;;;;;;5047760;28;20245;-68
2021/10/13 05:35:25;;;;;;;0.20;0.20;;;;;;;;;;5049327;28;20203;-68
2021/10/13 05:37:51;;;;;;;0.20;0.20;;;;;;;;;;5056973;28;20268;-68
2021/10/13 05:40:18;;;;;;;0.20;0.20;;;;;;;;;;5052700;28;20210;-68
2021/10/13 05:42:44;;;;;;;0.20;0.20;;;;;;;;;;5057487;28;20527;-68
2021/10/13 05:45:12;;;;;;;0.20;0.20;;;;;;;;;;5060428;28;20226;-68
2021/10/13 05:47:38;;;;;;;0.20;0.20;;;;;;;;;;5048585;28;20239;-67
2021/10/13 05:50:05;;;;;;;0.20;0.20;;;;;;;;;;5059163;28;20224;-66
2021/10/13 05:52:31;;;;;;;0.20;0.20;;;;;;;;;;5061167;28;20248;-67
2021/10/13 05:54:57;;;;;;;0.20;0.20;;;;;;;;;;5057508;28;20199;-66
2021/10/13 05:57:24;;;;;;;0.20;0.20;;;;;;;;;;5064711;28;20221;-66
2021/10/13 05:59:56;;;;;;;0.10;0.10;;;;;;;;;;5056554;28;20201;-63
2021/10/13 06:02:24;;;;;;;1.20;0.37;;;;;;;;;;5058671;28;20210;-62
2021/10/13 06:04:50;;;;;;;0.20;0.20;;;;;;;;;;5049303;28;20240;-70
2021/10/13 06:07:16;;;;;;;0.20;0.20;;;;;;;;;;5061350;28;20526;-67
2021/10/13 06:09:42;;;;;;;0.20;0.20;;;;;;;;;;5051961;28;20269;-66
2021/10/13 06:12:09;;;;;;;0.17;0.17;;;;;;;;;;5050090;28;20203;-68
2021/10/13 06:14:35;;;;;;;0.20;0.20;;;;;;;;;;5044770;28;20203;-67
2021/10/13 06:17:01;;;;;;;0.20;0.20;;;;;;;;;;5045009;28;20203;-67
2021/10/13 06:19:29;;;;;;;0.20;0.20;;;;;;;;;;5048849;28;20373;-67
2021/10/13 06:21:55;;;;;;;0.20;0.20;;;;;;;;;;5064040;28;20249;-66
2021/10/13 06:24:22;;;;;;;0.20;0.20;;;;;;;;;;5063696;28;20231;-66
2021/10/13 06:26:48;;;;;;;0.20;0.20;;;;;;;;;;5063883;28;20229;-66
2021/10/13 06:29:14;;;;;;;0.20;0.20;;;;;;;;;;5063871;28;20214;-67
2021/10/13 06:31:40;;;;;;;0.20;0.20;;;;;;;;;;5063699;28;20207;-67
2021/10/13 06:34:06;;;;;;;0.20;0.20;;;;;;;;;;5063480;28;20203;-67
2021/10/13 06:36:34;;;;;;;0.20;0.20;;;;;;;;;;5053253;28;20199;-67
2021/10/13 06:39:00;;;;;;;0.20;0.20;;;;;;;;;;5056661;28;20212;-67
2021/10/13 06:41:27;;;;;;;0.20;0.20;;;;;;;;;;5050681;28;20203;-67
2021/10/13 06:43:53;;;;;;;0.20;0.20;;;;;;;;;;5053421;28;20254;-67
2021/10/13 06:46:19;;;;;;;0.20;0.20;;;;;;;;;;5053466;28;20200;-62
2021/10/13 06:48:46;;;;;;;0.20;0.20;;;;;;;;;;5050205;28;20281;-67
2021/10/13 06:51:12;;;;;;;0.20;0.20;;;;;;;;;;5056757;28;20207;-68
2021/10/13 06:53:42;;;;;;;0.20;0.20;;;;;;;;;;5050286;28;20425;-66
2021/10/13 06:56:09;;;;;;;0.20;0.20;;;;;;;;;;5053012;28;20200;-66
2021/10/13 06:58:35;;;;;;;0.20;0.20;;;;;;;;;;5052314;28;20262;-66
2021/10/13 07:01:01;;;;;;;0.20;0.20;;;;;;;;;;5052748;28;20210;-66
2021/10/13 07:03:27;;;;;;;0.20;0.20;;;;;;;;;;5050020;28;20235;-67
2021/10/13 07:05:53;;;;;;;0.20;0.20;;;;;;;;;;5043320;28;20261;-66
2021/10/13 07:08:20;;;;;;;0.20;0.20;;;;;;;;;;5056862;28;20326;-66
2021/10/13 07:10:47;;;;;;;0.33;0.33;;;;;;;;;;5043420;28;20254;-67
2021/10/13 07:13:13;;;;;;;0.10;0.10;;;;;;;;;;5053004;28;20207;-66
2021/10/13 07:15:40;;;;;;;0.10;0.10;;;;;;;;;;5043277;28;20204;-65
2021/10/13 07:18:06;;;;;;;0.10;0.10;;;;;;;;;;5045039;28;20212;-66
2021/10/13 07:20:32;;;;;;;0.20;0.20;;;;;;;;;;5063151;28;20219;-66
2021/10/13 07:22:58;;;;;;;0.20;0.20;;;;;;;;;;5062971;28;20204;-67
2021/10/13 07:25:26;;;;;;;0.10;0.10;;;;;;;;;;5059126;28;20437;-67
2021/10/13 07:27:54;;;;;;;0.10;0.10;;;;;;;;;;5046402;28;20204;-66
2021/10/13 07:30:24;;;;;;;0.20;0.20;;;;;;;;;;5051563;28;20207;-67
2021/10/13 07:32:50;;;;;;;0.20;0.20;;;;;;;;;;5048764;28;20398;-67
2021/10/13 07:35:16;;;;;;;0.20;0.20;;;;;;;;;;5050747;28;20200;-66
2021/10/13 07:37:42;;;;;;;0.17;0.17;;;;;;;;;;5052117;28;20218;-66
2021/10/13 07:40:09;;;;;;;0.20;0.20;;;;;;;;;;5056777;28;20203;-67
2021/10/13 07:42:36;;;;;;;0.13;0.13;;;;;;;;;;5048977;28;20521;-68
2021/10/13 07:45:04;;;;;;;0.20;0.20;;;;;;;;;;5053217;28;20261;-68
2021/10/13 07:47:30;;;;;;;0.20;0.20;;;;;;;;;;5049593;28;20219;-68
2021/10/13 07:49:56;;;;;;;0.10;0.10;;;;;;;;;;5053898;28;20200;-68
2021/10/13 07:52:22;;;;;;;0.10;0.10;;;;;;;;;;5054224;28;20249;-68
2021/10/13 07:54:48;;;;;;;0.20;0.20;;;;;;;;;;5062558;28;20199;-68
2021/10/13 07:57:15;;;;;;;0.10;0.10;;;;;;;;;;5048408;28;20275;-67
2021/10/13 07:59:41;;;;;;;0.10;0.10;;;;;;;;;;5054927;28;20204;-67
2021/10/13 08:02:09;;;;;;;0.10;0.10;;;;;;;;;;5048741;28;20223;-66
2021/10/13 08:04:35;;;;;;;0.20;0.20;;;;;;;;;;5062090;28;20231;-68
2021/10/13 08:07:02;;;;;;;0.10;0.10;;;;;;;;;;5054114;28;20410;-68
2021/10/13 08:09:28;;;;;;;0.10;0.10;;;;;;;;;;5050433;28;20491;-68
2021/10/13 08:11:54;;;;;;;0.20;0.20;;;;;;;;;;5044095;28;20500;-68
2021/10/13 08:14:20;;;;;;;0.10;0.10;;;;;;;;;;5053845;28;20209;-68
2021/10/13 08:16:46;;;;;;;0.10;0.10;;;;;;;;;;5054437;28;20209;-68
2021/10/13 08:19:14;;;;;;;0.10;0.10;;;;;;;;;;5050392;28;20432;-68
2021/10/13 08:21:40;;;;;;;1.13;1.13;;;;;;;;;;5053729;28;20348;-67
2021/10/13 08:24:07;;;;;;;0.10;0.10;;;;;;;;;;5054602;28;20201;-66
2021/10/13 08:26:33;;;;;;;0.10;0.10;;;;;;;;;;5045136;28;20231;-68
2021/10/13 08:28:59;;;;;;;0.10;0.10;;;;;;;;;;5044197;28;20230;-69
2021/10/13 08:31:25;;;;;;;0.10;0.10;;;;;;;;;;5049520;28;20206;-68
2021/10/13 08:33:52;;;;;;;0.10;0.10;;;;;;;;;;5048065;28;20236;-68
2021/10/13 08:36:20;;;;;;;0.10;0.10;;;;;;;;;;5060218;28;20203;-67
2021/10/13 08:38:46;;;;;;;0.10;0.10;;;;;;;;;;5047595;28;20208;-68
2021/10/13 08:41:12;;;;;;;0.10;0.10;;;;;;;;;;5048212;28;20201;-67
2021/10/13 08:43:39;;;;;;;0.00;0.00;;;;;;;;;;5052789;28;20502;-67
2021/10/13 08:46:05;;;;;;;0.32;0.32;;;;;;;;;;5049541;28;20287;-67
2021/10/13 08:48:31;;;;;;;0.03;0.03;;;;;;;;;;5057489;28;20385;-67
2021/10/13 08:50:57;;;;;;;0.10;0.10;;;;;;;;;;5055606;28;20267;-70
2021/10/13 08:53:25;;;;;;;0.00;0.00;;;;;;;;;;5058660;28;20201;-69
2021/10/13 08:55:52;;;;;;;0.10;0.10;;;;;;;;;;5062257;28;20357;-68
2021/10/13 08:58:19;;;;;;;0.10;0.10;;;;;;;;;;5054779;28;20256;-67
2021/10/13 09:00:46;;;;;;;0.03;0.03;;;;;;;;;;5053134;28;20212;-67
2021/10/13 09:03:26;;;;;;;0.00;0.00;;;;;;;;;;5049015;28;20216;-70
2021/10/13 09:05:53;;;;;;;0.05;0.05;;;;;;;;;;5045582;28;20277;-70
2021/10/13 09:08:19;;;;;;;0.00;0.00;;;;;;;;;;5061274;28;20206;-70
2021/10/13 09:10:47;;;;;;;0.00;0.00;;;;;;;;;;5051450;28;20491;-70
2021/10/13 09:13:14;;;;;;;0.00;0.00;;;;;;;;;;5059595;28;20270;-70
2021/10/13 09:15:46;;;;;;;0.00;0.00;;;;;;;;;;5059478;28;20228;-72
2021/10/13 09:18:12;;;;;;;0.00;0.00;;;;;;;;;;5049447;28;20552;-73
2021/10/13 09:20:40;;;;;;;0.08;0.08;;;;;;;;;;5062851;28;20207;-71
2021/10/13 09:23:07;;;;;;;0.00;0.00;;;;;;;;;;5051522;28;20207;-73
2021/10/13 09:25:35;;;;;;;0.10;0.10;;;;;;;;;;5065378;28;20473;-72
2021/10/13 09:28:03;;;;;;;0.05;0.05;;;;;;;;;;5060721;28;20252;-74
2021/10/13 09:30:30;;;;;;;0.10;0.10;;;;;;;;;;5064025;28;20216;-73
2021/10/13 09:33:07;;;;;;;0.10;0.10;;;;;;;;;;5064904;28;20201;-74
2021/10/13 09:35:33;;;;;;;0.20;0.20;;;;;;;;;;5065006;28;20202;-73
2021/10/13 09:38:01;;;;;;;0.10;0.10;;;;;;;;;;5065062;28;20327;-70
2021/10/13 09:40:28;;;;;;;0.00;0.00;;;;;;;;;;5045339;28;20264;-70
2021/10/13 09:42:58;;;;;;;0.10;0.10;;;;;;;;;;5053041;28;20248;-72
2021/10/13 09:45:27;;;;;;;0.10;0.10;;;;;;;;;;5056447;28;20222;-72
2021/10/13 09:47:57;;;;;;;0.10;0.10;;;;;;;;;;5048286;28;20395;-69
2021/10/13 09:50:23;;;;;;;0.00;0.00;;;;;;;;;;5047969;28;20249;-72
2021/10/13 09:52:49;;;;;;;0.00;0.00;;;;;;;;;;5051699;28;20383;-72
2021/10/13 09:55:16;;;;;;;0.03;0.03;;;;;;;;;;5056033;28;20207;-72
2021/10/13 09:57:43;;;;;;;0.00;0.00;;;;;;;;;;5046744;28;20212;-71
2021/10/13 10:00:12;;;;;;;0.00;0.00;;;;;;;;;;5045884;28;20241;-70
2021/10/13 10:02:40;;;;;;;0.00;0.00;;;;;;;;;;5045228;28;20207;-72
2021/10/13 10:05:10;;;;;;;0.08;0.08;;;;;;;;;;5046735;28;20466;-66
2021/10/13 10:07:42;;;;;;;0.10;0.10;;;;;;;;;;5055885;28;20215;-65
2021/10/13 10:10:09;;;;;;;0.00;0.00;;;;;;;;;;5048222;28;20424;-64
2021/10/13 10:12:54;;;;;;;0.00;0.00;;;;;;;;;;5054700;28;20208;-68
2021/10/13 10:15:27;;;;;;;0.00;0.00;;;;;;;;;;5051913;28;20225;-68
2021/10/13 10:17:55;;;;;;;0.00;0.00;;;;;;;;;;5057771;28;20271;-68
2021/10/13 10:20:35;;;;;;;0.00;0.00;;;;;;;;;;5059910;28;20206;-68
2021/10/13 10:23:01;;;;;;;0.00;0.00;;;;;;;;;;5064038;28;20202;-68
2021/10/13 10:25:35;;;;;;;0.10;0.10;;;;;;;;;;5063849;28;20224;-67
2021/10/13 10:28:01;;;;;;;0.00;0.00;;;;;;;;;;5064009;28;20201;-69
2021/10/13 10:30:27;;;;;;;0.05;0.05;;;;;;;;;;5064196;28;20246;-67
2021/10/13 10:33:12;;;;;;;0.10;0.10;;;;;;;;;;5063643;28;20243;-68
2021/10/13 10:35:42;;;;;;;0.10;0.10;;;;;;;;;;5063895;28;20200;-67
2021/10/13 10:38:09;;;;;;;0.10;0.10;;;;;;;;;;5063839;28;20459;-67
2021/10/13 10:40:36;;;;;;;0.10;0.10;;;;;;;;;;5063912;28;20246;-66
2021/10/13 10:43:03;;;;;;;0.00;0.00;;;;;;;;;;5063413;28;20202;-68
2021/10/13 10:45:40;;;;;;;0.05;0.05;;;;;;;;;;5063693;28;20224;-67
2021/10/13 10:48:10;;;;;;;0.10;0.10;;;;;;;;;;5063564;28;20411;-68
2021/10/13 10:50:38;;;;;;;0.10;0.10;;;;;;;;;;5063752;28;20231;-68
2021/10/13 10:53:10;;;;;;;0.00;0.00;;;;;;;;;;5062226;28;20205;-68
2021/10/13 10:55:37;;;;;;;0.00;0.00;;;;;;;;;;5063254;28;20205;-67
2021/10/13 10:58:14;;;;;;;0.10;0.10;;;;;;;;;;5057905;28;20256;-69
2021/10/13 11:00:42;;;;;;;0.10;0.10;;;;;;;;;;5050638;28;20506;-72
2021/10/13 11:03:16;;;;;;;0.10;0.10;;;;;;;;;;5057536;28;20261;-71
2021/10/13 11:05:43;;;;;;;0.10;0.10;;;;;;;;;;5050201;28;20220;-72
2021/10/13 11:08:10;;;;;;;0.00;0.00;;;;;;;;;;5063631;28;20209;-72
2021/10/13 11:10:39;;;;;;;0.00;0.00;;;;;;;;;;5062095;28;20249;-71
2021/10/13 11:13:05;;;;;;;3.38;3.17;;;;;;;;;;5062216;28;20210;-73
2021/10/13 11:15:32;;;;;;;0.05;0.05;;;;;;;;;;5061870;28;20344;-72
2021/10/13 11:18:09;;;;;;;0.08;0.08;;;;;;;;;;5063010;28;20207;-71
2021/10/13 11:20:35;;;;;;;0.10;0.10;;;;;;;;;;5062404;28;20201;-73
2021/10/13 11:23:03;;;;;;;0.10;0.10;;;;;;;;;;5062390;28;20206;-72
2021/10/13 11:25:31;;;;;;;0.00;0.00;;;;;;;;;;5046900;28;20268;-72
2021/10/13 11:27:59;;;;;;;0.10;0.10;;;;;;;;;;5060485;28;20259;-73
2021/10/13 11:30:25;;;;;;;0.10;0.10;;;;;;;;;;5042930;28;20211;-73
2021/10/13 11:32:51;;;;;;;0.00;0.00;;;;;;;;;;5042561;28;20505;-74
2021/10/13 11:35:19;;;;;;;0.00;0.00;;;;;;;;;;5042916;28;20203;-75
2021/10/13 11:37:47;;;;;;;0.10;0.10;;;;;;;;;;5055795;28;20252;-71
2021/10/13 11:40:14;;;;;;;0.17;0.17;;;;;;;;;;5043514;28;20549;-72
2021/10/13 11:42:41;;;;;;;0.10;0.10;;;;;;;;;;5042978;28;20259;-72
2021/10/13 11:45:12;;;;;;;0.03;0.03;;;;;;;;;;5056508;28;20204;-71
2021/10/13 11:47:38;;;;;;;0.00;0.00;;;;;;;;;;5042808;28;20500;-72
2021/10/13 11:50:06;;;;;;;0.00;0.00;;;;;;;;;;5044775;28;20205;-73
2021/10/13 11:52:32;;;;;;;0.10;0.10;;;;;;;;;;5055214;28;20295;-72
2021/10/13 11:55:01;;;;;;;0.10;0.10;;;;;;;;;;5054899;28;20200;-72
2021/10/13 11:57:27;;;;;;;0.10;0.10;;;;;;;;;;5063189;28;20499;-73
2021/10/13 12:00:15;;;;;;;0.10;0.10;;;;;;;;;;5055971;28;20201;-74
2021/10/13 12:02:42;;;;;;;0.10;0.10;;;;;;;;;;5058565;28;20212;-74
2021/10/13 12:05:09;;;;;;;0.10;0.10;;;;;;;;;;5056367;28;20303;-71
2021/10/13 12:07:43;;;;;;;0.10;0.10;;;;;;;;;;5061316;28;20211;-70
2021/10/13 12:10:10;;;;;;;0.10;0.10;;;;;;;;;;5059451;28;20248;-72
2021/10/13 12:12:36;;;;;;;0.20;0.20;;;;;;;;;;5060174;28;20217;-73
2021/10/13 12:15:17;;;;;;;0.10;0.10;;;;;;;;;;5052887;28;20438;-72
2021/10/13 12:17:44;;;;;;;0.10;0.10;;;;;;;;;;5052676;28;20389;-72
2021/10/13 12:20:16;;;;;;;0.03;0.03;;;;;;;;;;5066511;28;20268;-73
2021/10/13 12:22:46;;;;;;;0.10;0.10;;;;;;;;;;5065945;28;20604;-71
2021/10/13 12:25:23;;;;;;;0.00;0.00;;;;;;;;;;5066313;28;20202;-73
2021/10/13 12:27:49;;;;;;;0.10;0.10;;;;;;;;;;5066505;28;20274;-73
2021/10/13 12:30:29;;;;;;;0.10;0.10;;;;;;;;;;5066326;28;20273;-72
2021/10/13 12:33:00;;;;;;;0.10;0.10;;;;;;;;;;5066175;28;20217;-71
2021/10/13 12:35:28;;;;;;;0.00;0.00;;;;;;;;;;5066212;28;20496;-71
2021/10/13 12:37:55;;;;;;;0.10;0.10;;;;;;;;;;5065948;28;20250;-72
2021/10/13 12:40:21;;;;;;;0.00;0.00;;;;;;;;;;5066778;28;20273;-73
2021/10/13 12:42:47;;;;;;;0.10;0.10;;;;;;;;;;5066213;28;20326;-69
2021/10/13 12:45:13;;;;;;;0.10;0.10;;;;;;;;;;5065952;28;20210;-75
2021/10/13 12:47:41;;;;;;;0.10;0.10;;;;;;;;;;5066018;28;20203;-74
2021/10/13 12:50:12;;;;;;;0.10;0.10;;;;;;;;;;5066044;28;20499;-74
2021/10/13 12:52:38;;;;;;;0.10;0.10;;;;;;;;;;5065832;28;20274;-74
2021/10/13 12:55:04;;;;;;;0.10;0.10;;;;;;;;;;5065751;28;20205;-70
2021/10/13 12:57:31;;;;;;;0.10;0.10;;;;;;;;;;5065930;28;20495;-72
2021/10/13 12:59:58;;;;;;;0.00;0.00;;;;;;;;;;5065439;28;20204;-71
2021/10/13 13:02:25;;;;;;;0.10;0.10;;;;;;;;;;5065533;28;20282;-72
2021/10/13 13:04:54;;;;;;;0.10;0.10;;;;;;;;;;5065167;28;20282;-70
2021/10/13 13:07:21;;;;;;;0.10;0.10;;;;;;;;;;5065569;28;20298;-71
2021/10/13 13:09:47;;;;;;;0.10;0.10;;;;;;;;;;5065542;28;20491;-72
2021/10/13 13:12:14;;;;;;;0.10;0.10;;;;;;;;;;5065498;28;20259;-72
2021/10/13 13:14:40;;;;;;;0.10;0.10;;;;;;;;;;5064969;28;20292;-70
2021/10/13 13:17:07;;;;;;;0.10;0.10;;;;;;;;;;5064204;28;20497;-72
2021/10/13 13:19:34;;;;;;;0.10;0.10;;;;;;;;;;5060335;28;20198;-72
2021/10/13 13:22:01;;;;;;;0.53;0.53;;;;;;;;;;5055909;28;20381;-72
2021/10/13 13:24:27;;;;;;;0.10;0.10;;;;;;;;;;5065302;28;20211;-73
2021/10/13 13:26:54;;;;;;;0.10;0.10;;;;;;;;;;5065191;28;20250;-74
2021/10/13 13:29:20;;;;;;;0.10;0.10;;;;;;;;;;5065015;28;20276;-67
2021/10/13 13:31:47;;;;;;;0.00;0.00;;;;;;;;;;5065152;28;20449;-66
2021/10/13 13:34:13;;;;;;;0.10;0.10;;;;;;;;;;5065004;28;20502;-67
2021/10/13 13:36:40;;;;;;;0.10;0.10;;;;;;;;;;5064704;28;20253;-67
2021/10/13 13:39:08;;;;;;;0.10;0.10;;;;;;;;;;5051759;28;20205;-66
2021/10/13 13:41:34;;;;;;;0.10;0.10;;;;;;;;;;5050402;28;20212;-67
2021/10/13 13:44:00;;;;;;;0.10;0.10;;;;;;;;;;5054875;28;20269;-66
2021/10/13 13:46:26;;;;;;;0.10;0.10;;;;;;;;;;5048466;28;20288;-67
2021/10/13 13:48:52;;;;;;;0.10;0.10;;;;;;;;;;5045032;28;20205;-67
2021/10/13 13:51:19;;;;;;;0.10;0.10;;;;;;;;;;5053477;28;20260;-68
2021/10/13 13:53:45;;;;;;;0.10;0.10;;;;;;;;;;5058529;28;20500;-66
2021/10/13 13:56:13;;;;;;;0.10;0.10;;;;;;;;;;5046069;28;20196;-67
2021/10/13 13:58:39;;;;;;;0.10;0.10;;;;;;;;;;5056001;28;20209;-66
2021/10/13 14:01:06;;;;;;;0.10;0.10;;;;;;;;;;5059283;28;20207;-68
2021/10/13 14:03:32;;;;;;;0.10;0.10;;;;;;;;;;5052412;28;20441;-67
2021/10/13 14:05:58;;;;;;;0.10;0.10;;;;;;;;;;5054747;28;20245;-66
2021/10/13 14:08:24;;;;;;;0.10;0.10;;;;;;;;;;5053146;28;20258;-68
2021/10/13 14:10:52;;;;;;;0.10;0.10;;;;;;;;;;5052659;28;20468;-68
2021/10/13 14:13:20;;;;;;;0.10;0.10;;;;;;;;;;5054817;28;20207;-68
2021/10/13 14:15:46;;;;;;;0.10;0.10;;;;;;;;;;5052763;28;20303;-68
2021/10/13 14:18:12;;;;;;;0.10;0.10;;;;;;;;;;5050163;28;20215;-67
2021/10/13 14:20:40;;;;;;;0.00;0.00;;;;;;;;;;5058263;28;20253;-67
2021/10/13 14:23:07;;;;;;;0.10;0.10;;;;;;;;;;5064138;28;20427;-68
2021/10/13 14:25:33;;;;;;;0.10;0.10;;;;;;;;;;5064347;28;20268;-68
2021/10/13 14:27:59;;;;;;;0.10;0.10;;;;;;;;;;5063783;28;20224;-68
2021/10/13 14:30:27;;;;;;;0.10;0.10;;;;;;;;;;5063873;28;20333;-68
2021/10/13 14:32:53;;;;;;;0.10;0.10;;;;;;;;;;5063738;28;20211;-65
2021/10/13 14:35:20;;;;;;;0.10;0.10;;;;;;;;;;5064035;28;20293;-67
2021/10/13 14:37:46;;;;;;;0.10;0.10;;;;;;;;;;5063597;28;20209;-65
2021/10/13 14:40:15;;;;;;;0.10;0.10;;;;;;;;;;5063862;28;20244;-65
2021/10/13 14:42:41;;;;;;;0.10;0.10;;;;;;;;;;5063818;28;20204;-65
2021/10/13 14:45:08;;;;;;;0.10;0.10;;;;;;;;;;5063426;28;20230;-65